Pagrindinis puslapis
METAR-TAF:

METAR-TAF

Oro uostai :

Sianas, Kinija

platuma: 34-26N, ilguma: 108-45E, Aukštis: 479 m

Dabartinis oras

Ataskaita buvo paskelbta 58 minutes, ne 10:00 UTC
Vėjas 2 kt nuo kintamojo kryptimis
Temperatūra 20°C
Drėgmė 32%
Slėgis 1012 hPa
Matomumas 10 km arba daugiau
nėra debesų žemiau 1500 m ir nėra kamuolinių lietaus debesų

METAR: ZLXY 311000Z VRB01MPS CAVOK 20/03 Q1012 NOSIG

Laikas: 18:58 (10:58 UTC)

Prognozė

Ataskaita buvo paskelbta 7 valandos ir 52 minutes, ne 03:06 UTC
Prognozė galioja nuo 31 metu 06 UTC su 01 metu 06 UTC
Vėjas 6 kt iš Rytų
Matomumas: 3000 m
migla

TAF: ZLXY 310306Z 3106/0106 08003MPS 3000 HZ NSC TX20/3108Z TN08/3122Z

Orai ataskaitas ir orų prognozės (METAR, TAF).

turimą stotys yra geltonos ir raudonos taškus žemėlapyje.

Perkelti pele per norėdami pamatyti stoties vardą.

Tada spustelėkite, norėdami matyti oro stebėjimo ir prognozės.

Norėdami pakeisti žemėlapį: spustelėkite ant žalios mygtukų su juodo kryžiaus žemyn,; žalią mygtuką su brūkšneliu, jei norite nutolinti; arba žalių rodyklių gretimoms žemėlapius.


METAR-TAF: